createdAt,value
2018-07-12T00:00:12.993Z,18.90
2018-07-12T00:01:12.971Z,27.20
2018-07-12T00:02:12.931Z,20.20
2018-07-12T00:03:12.903Z,23.50
2018-07-12T00:04:12.878Z,27.30
2018-07-12T00:05:12.841Z,22.90
2018-07-12T00:06:12.803Z,22.60
2018-07-12T00:07:12.800Z,21.80
2018-07-12T00:08:12.736Z,22.90
2018-07-12T00:09:12.704Z,21.50
2018-07-12T00:10:12.676Z,22.00
2018-07-12T00:11:12.652Z,23.40
2018-07-12T00:12:12.605Z,24.60
2018-07-12T00:13:12.596Z,25.90
2018-07-12T00:14:12.541Z,29.90
2018-07-12T00:15:12.510Z,26.30
2018-07-12T00:16:12.475Z,24.50
2018-07-12T00:17:12.460Z,26.90
2018-07-12T00:18:12.422Z,24.50
2018-07-12T00:19:12.380Z,28.20
2018-07-12T00:20:12.361Z,27.50
2018-07-12T00:21:12.314Z,24.40
2018-07-12T00:22:13.191Z,26.90
2018-07-12T00:23:12.285Z,23.50
2018-07-12T00:24:12.222Z,28.80
2018-07-12T00:25:12.187Z,35.80
2018-07-12T00:26:12.206Z,27.30
2018-07-12T00:27:12.118Z,29.80
2018-07-12T00:28:12.087Z,27.00
2018-07-12T00:29:12.053Z,24.20
2018-07-12T00:30:12.029Z,26.70
2018-07-12T00:31:11.999Z,29.70
2018-07-12T00:32:11.961Z,25.90
2018-07-12T00:33:11.923Z,25.90
2018-07-12T00:34:11.898Z,27.80
2018-07-12T00:35:11.862Z,32.70
2018-07-12T00:36:11.840Z,26.30
2018-07-12T00:37:11.803Z,27.60
2018-07-12T00:38:11.771Z,23.20
2018-07-12T00:39:11.753Z,25.20
2018-07-12T00:40:11.710Z,26.10
2018-07-12T00:41:11.669Z,25.40
2018-07-12T00:42:11.639Z,26.50
2018-07-12T00:43:11.643Z,25.80
2018-07-12T00:44:11.572Z,32.40
2018-07-12T00:45:11.541Z,25.10
2018-07-12T00:46:11.512Z,29.50
2018-07-12T00:47:11.472Z,26.30
2018-07-12T00:48:11.463Z,25.00
2018-07-12T00:49:11.416Z,28.30
2018-07-12T00:50:11.383Z,30.20
2018-07-12T00:51:11.371Z,31.70
2018-07-12T00:52:11.312Z,33.30
2018-07-12T00:53:11.281Z,31.10
2018-07-12T00:54:11.244Z,28.20
2018-07-12T00:55:11.215Z,29.10
2018-07-12T00:56:11.185Z,22.60
2018-07-12T00:57:11.155Z,25.00
2018-07-12T00:58:11.124Z,28.10
2018-07-12T00:59:12.766Z,22.40
2018-07-12T01:00:11.055Z,27.50
2018-07-12T01:01:11.019Z,22.80
2018-07-12T01:02:11.016Z,23.20
2018-07-12T01:03:11.018Z,22.30
2018-07-12T01:04:11.540Z,25.10
2018-07-12T01:05:10.899Z,27.30
2018-07-12T01:06:10.889Z,21.00
2018-07-12T01:07:10.865Z,19.70
2018-07-12T01:08:10.800Z,25.90
2018-07-12T01:09:10.763Z,26.00
2018-07-12T01:10:10.734Z,24.10
2018-07-12T01:11:10.840Z,25.00
2018-07-12T01:12:10.682Z,25.30
2018-07-12T01:13:10.633Z,25.90
2018-07-12T01:14:10.610Z,20.90
2018-07-12T01:15:10.568Z,20.30
2018-07-12T01:16:10.546Z,19.10
2018-07-12T01:17:10.506Z,23.80
2018-07-12T01:18:10.506Z,24.60
2018-07-12T01:19:10.450Z,23.40
2018-07-12T01:20:10.423Z,27.40
2018-07-12T01:21:10.405Z,19.40
2018-07-12T01:22:10.356Z,28.00
2018-07-12T01:23:10.322Z,19.60
2018-07-12T01:24:10.281Z,24.80
2018-07-12T01:25:10.252Z,23.40
2018-07-12T01:26:10.268Z,21.70
2018-07-12T01:27:10.183Z,25.40
2018-07-12T01:28:10.165Z,26.40
2018-07-12T01:29:10.140Z,23.90
2018-07-12T01:30:10.092Z,24.90
2018-07-12T01:31:10.053Z,22.30
2018-07-12T01:32:10.023Z,26.10
2018-07-12T01:33:09.990Z,24.50
2018-07-12T01:34:09.954Z,28.00
2018-07-12T01:35:09.923Z,26.90
2018-07-12T01:36:09.953Z,29.00
2018-07-12T01:37:09.873Z,23.30
2018-07-12T01:38:09.827Z,25.70
2018-07-12T01:39:09.795Z,23.70
2018-07-12T01:40:09.765Z,25.80
2018-07-12T01:41:09.770Z,24.40
2018-07-12T01:42:09.704Z,23.30
2018-07-12T01:43:09.674Z,29.00
2018-07-12T01:44:09.632Z,26.00
2018-07-12T01:45:09.613Z,22.50
2018-07-12T01:46:09.575Z,25.50
2018-07-12T01:47:09.546Z,28.00
2018-07-12T01:48:09.530Z,28.60
2018-07-12T01:49:09.475Z,25.70
2018-07-12T01:50:09.439Z,20.50
2018-07-12T01:51:09.431Z,24.40
2018-07-12T01:52:09.378Z,29.30
2018-07-12T01:53:09.349Z,24.30
2018-07-12T01:54:09.333Z,33.10
2018-07-12T01:55:09.281Z,27.80
2018-07-12T01:56:09.245Z,26.60
2018-07-12T01:57:09.216Z,26.10
2018-07-12T01:58:09.186Z,33.40
2018-07-12T01:59:09.150Z,28.40
2018-07-12T02:00:09.121Z,23.80
2018-07-12T02:01:09.083Z,24.20
2018-07-12T02:02:09.085Z,26.40
2018-07-12T02:03:09.029Z,27.90
2018-07-12T02:04:09.005Z,21.40
2018-07-12T02:05:08.970Z,26.40
2018-07-12T02:06:08.925Z,28.90
2018-07-12T02:07:08.892Z,28.30
2018-07-12T02:08:08.864Z,26.20
2018-07-12T02:09:08.826Z,29.20
2018-07-12T02:10:08.811Z,34.00
2018-07-12T02:11:08.766Z,26.40
2018-07-12T02:12:08.736Z,28.10
2018-07-12T02:13:08.705Z,27.30
2018-07-12T02:14:08.681Z,32.10
2018-07-12T02:15:08.635Z,32.70
2018-07-12T02:16:08.602Z,29.60
2018-07-12T02:17:08.586Z,30.00
2018-07-12T02:18:08.543Z,30.10
2018-07-12T02:19:08.516Z,27.30
2018-07-12T02:20:08.477Z,29.50
2018-07-12T02:21:08.445Z,26.60
2018-07-12T02:22:08.408Z,28.00
2018-07-12T02:23:08.381Z,31.10
2018-07-12T02:24:08.358Z,29.40
2018-07-12T02:25:08.329Z,29.90
2018-07-12T02:26:08.278Z,28.50
2018-07-12T02:27:08.249Z,45.20
2018-07-12T02:28:08.240Z,34.40
2018-07-12T02:29:08.184Z,36.10
2018-07-12T02:30:08.148Z,35.30
2018-07-12T02:31:08.118Z,43.00
2018-07-12T02:32:08.090Z,41.80
2018-07-12T02:33:08.055Z,41.30
2018-07-12T02:34:08.021Z,38.50
2018-07-12T02:35:08.010Z,47.90
2018-07-12T02:36:08.017Z,40.60
2018-07-12T02:37:07.933Z,41.20
2018-07-12T02:38:07.951Z,40.20
2018-07-12T02:39:07.859Z,44.30
2018-07-12T02:40:07.852Z,42.40
2018-07-12T02:41:07.796Z,40.70
2018-07-12T02:42:07.780Z,40.10
2018-07-12T02:43:07.766Z,46.80
2018-07-12T02:44:07.701Z,36.60
2018-07-12T02:45:07.666Z,41.10
2018-07-12T02:46:07.632Z,38.90
2018-07-12T02:47:07.609Z,38.00
2018-07-12T02:48:07.578Z,43.10
2018-07-12T02:49:07.539Z,48.60
2018-07-12T02:50:07.502Z,43.20
2018-07-12T02:51:07.484Z,44.10
2018-07-12T02:52:07.440Z,36.90
2018-07-12T02:53:07.442Z,33.60
2018-07-12T02:54:07.376Z,41.10
2018-07-12T02:55:07.340Z,36.00
2018-07-12T02:56:07.316Z,41.30
2018-07-12T02:57:07.279Z,43.10
2018-07-12T02:58:07.274Z,39.90
2018-07-12T02:59:07.498Z,40.50
2018-07-12T03:00:07.194Z,38.50
2018-07-12T03:01:07.147Z,38.50
2018-07-12T03:02:07.131Z,35.50
2018-07-12T03:03:07.088Z,42.10
2018-07-12T03:04:07.053Z,36.70
2018-07-12T03:05:07.044Z,46.20
2018-07-12T03:06:07.019Z,43.30
2018-07-12T03:07:06.954Z,45.10
2018-07-12T03:08:06.921Z,41.30
2018-07-12T03:09:08.811Z,40.90
2018-07-12T03:10:06.868Z,33.10
2018-07-12T03:11:06.826Z,39.00
2018-07-12T03:12:06.793Z,42.10
2018-07-12T03:13:06.758Z,42.30
2018-07-12T03:14:06.730Z,41.60
2018-07-12T03:15:06.697Z,41.10
2018-07-12T03:16:06.663Z,35.60
2018-07-12T03:17:06.633Z,44.60
2018-07-12T03:18:06.595Z,41.20
2018-07-12T03:19:06.586Z,43.50
2018-07-12T03:20:06.565Z,38.50
2018-07-12T03:21:06.499Z,43.50
2018-07-12T03:22:06.467Z,40.10
2018-07-12T03:23:06.438Z,40.50
2018-07-12T03:24:06.410Z,40.20
2018-07-12T03:25:06.369Z,41.50
2018-07-12T03:26:06.334Z,40.00
2018-07-12T03:27:06.305Z,41.10
2018-07-12T03:28:06.275Z,46.80
2018-07-12T03:29:06.241Z,49.70
2018-07-12T03:30:06.216Z,39.80
2018-07-12T03:31:06.183Z,46.00
2018-07-12T03:32:06.496Z,50.40
2018-07-12T03:33:06.153Z,45.60
2018-07-12T03:34:06.107Z,47.90
2018-07-12T03:35:06.048Z,40.30
2018-07-12T03:36:06.015Z,44.00
2018-07-12T03:37:05.980Z,46.60
2018-07-12T03:38:05.964Z,42.00
2018-07-12T03:39:05.978Z,46.90
2018-07-12T03:40:05.883Z,45.00
2018-07-12T03:41:05.850Z,42.30
2018-07-12T03:42:05.844Z,41.80
2018-07-12T03:43:05.786Z,48.10
2018-07-12T03:44:05.746Z,37.70
2018-07-12T03:45:05.716Z,43.50
2018-07-12T03:46:05.827Z,41.10
2018-07-12T03:47:05.688Z,44.60
2018-07-12T03:48:05.683Z,47.70
2018-07-12T03:49:05.590Z,44.10
2018-07-12T03:50:05.551Z,43.00
2018-07-12T03:51:05.520Z,49.20
2018-07-12T03:52:05.485Z,45.50
2018-07-12T03:53:05.480Z,49.60
2018-07-12T03:54:05.455Z,52.80
2018-07-12T03:55:05.389Z,45.40
2018-07-12T03:56:05.358Z,53.40
2018-07-12T03:57:05.327Z,46.20
2018-07-12T03:58:05.384Z,49.90
2018-07-12T03:59:05.259Z,47.30
2018-07-12T04:00:05.492Z,47.60
2018-07-12T04:01:05.193Z,42.90
2018-07-12T04:02:05.744Z,49.10
2018-07-12T04:03:05.746Z,47.00
2018-07-12T04:04:05.494Z,40.30
2018-07-12T04:05:05.066Z,42.00
2018-07-12T04:06:05.053Z,48.60
2018-07-12T04:07:05.229Z,43.00
2018-07-12T04:08:04.972Z,45.60
2018-07-12T04:09:04.946Z,50.10
2018-07-12T04:10:04.917Z,45.50
2018-07-12T04:11:04.870Z,43.90
2018-07-12T04:12:04.864Z,46.70
2018-07-12T04:13:04.833Z,45.40
2018-07-12T04:14:04.767Z,46.20
2018-07-12T04:15:04.745Z,41.70
2018-07-12T04:16:04.730Z,42.80
2018-07-12T04:17:04.671Z,43.70
2018-07-12T04:18:04.640Z,39.70
2018-07-12T04:19:04.609Z,40.60
2018-07-12T04:20:04.575Z,39.00
2018-07-12T04:21:05.163Z,49.00
2018-07-12T04:22:04.510Z,42.20
2018-07-12T04:23:04.494Z,37.30
2018-07-12T04:24:04.444Z,40.20
2018-07-12T04:25:04.414Z,40.00
2018-07-12T04:26:04.382Z,47.10
2018-07-12T04:27:04.348Z,41.50
2018-07-12T04:28:04.310Z,45.50
2018-07-12T04:29:04.276Z,39.50
2018-07-12T04:30:04.247Z,40.40
2018-07-12T04:31:04.215Z,39.20
2018-07-12T04:32:04.191Z,43.60
2018-07-12T04:33:04.149Z,41.10
2018-07-12T04:34:04.116Z,49.10
2018-07-12T04:35:04.085Z,39.30
2018-07-12T04:36:04.053Z,45.70
2018-07-12T04:37:04.022Z,48.90
2018-07-12T04:38:03.983Z,45.10
2018-07-12T04:39:03.955Z,41.20
2018-07-12T04:40:03.934Z,34.70
2018-07-12T04:41:03.888Z,39.70
2018-07-12T04:42:03.860Z,34.40
2018-07-12T04:43:03.827Z,37.90
2018-07-12T04:44:03.792Z,40.20
2018-07-12T04:45:03.767Z,36.70
2018-07-12T04:46:03.732Z,41.20
2018-07-12T04:47:03.692Z,32.20
2018-07-12T04:48:03.661Z,41.40
2018-07-12T04:49:03.635Z,41.30
2018-07-12T04:50:03.602Z,39.80
2018-07-12T04:51:03.580Z,36.40
2018-07-12T04:52:03.537Z,39.00
2018-07-12T04:53:03.502Z,44.60
2018-07-12T04:54:03.468Z,38.00
2018-07-12T04:55:03.467Z,37.70
2018-07-12T04:56:03.400Z,33.40
2018-07-12T04:57:03.369Z,36.70
2018-07-12T04:58:03.401Z,40.20
2018-07-12T04:59:03.312Z,33.90
2018-07-12T05:00:03.278Z,36.70
2018-07-12T05:01:03.251Z,37.60
2018-07-12T05:02:03.307Z,32.50
2018-07-12T05:03:03.178Z,37.20
2018-07-12T05:04:03.307Z,36.50
2018-07-12T05:05:03.262Z,36.60
2018-07-12T05:06:03.308Z,37.60
2018-07-12T05:07:03.058Z,31.10
2018-07-12T05:08:03.020Z,37.20
2018-07-12T05:09:02.985Z,35.20
2018-07-12T05:10:02.955Z,37.90
2018-07-12T05:11:02.920Z,33.20
2018-07-12T05:12:02.888Z,32.00
2018-07-12T05:13:03.457Z,37.10
2018-07-12T05:14:02.827Z,35.40
2018-07-12T05:15:02.795Z,34.40
2018-07-12T05:16:02.790Z,32.00
2018-07-12T05:17:02.732Z,29.50
2018-07-12T05:18:02.696Z,41.70
2018-07-12T05:19:02.670Z,34.30
2018-07-12T05:20:02.637Z,35.80
2018-07-12T05:21:02.602Z,33.50
2018-07-12T05:22:02.725Z,37.40
2018-07-12T05:23:02.538Z,30.30
2018-07-12T05:24:02.520Z,34.30
2018-07-12T05:25:02.484Z,29.60
2018-07-12T05:26:02.446Z,36.40
2018-07-12T05:27:02.413Z,32.20
2018-07-12T05:28:02.384Z,26.60
2018-07-12T05:29:02.351Z,31.20
2018-07-12T05:30:02.316Z,30.20
2018-07-12T05:31:02.288Z,29.40
2018-07-12T05:32:02.252Z,30.60
2018-07-12T05:33:02.227Z,33.60
2018-07-12T05:34:02.193Z,32.00
2018-07-12T05:35:02.157Z,27.30
2018-07-12T05:36:02.131Z,35.90
2018-07-12T05:37:02.104Z,36.80
2018-07-12T05:38:02.071Z,27.60
2018-07-12T05:39:02.078Z,27.70
2018-07-12T05:40:02.007Z,25.60
2018-07-12T05:41:01.974Z,32.70
2018-07-12T05:42:01.948Z,35.60
2018-07-12T05:43:01.917Z,30.40
2018-07-12T05:44:02.207Z,33.10
2018-07-12T05:45:01.852Z,29.00
2018-07-12T05:46:01.818Z,34.40
2018-07-12T05:47:01.793Z,36.10
2018-07-12T05:48:01.754Z,27.00
2018-07-12T05:49:01.727Z,30.40
2018-07-12T05:50:01.696Z,28.50
2018-07-12T05:51:01.668Z,30.10
2018-07-12T05:52:01.631Z,35.70
2018-07-12T05:53:01.605Z,32.90
2018-07-12T05:54:01.565Z,33.90
2018-07-12T05:55:01.541Z,35.00
2018-07-12T05:56:01.509Z,29.80
2018-07-12T05:57:01.487Z,31.10
2018-07-12T05:58:01.448Z,38.20
2018-07-12T05:59:01.410Z,34.90
2018-07-12T06:00:01.382Z,36.70
2018-07-12T06:01:01.351Z,37.80
2018-07-12T06:02:01.317Z,35.70
2018-07-12T06:03:01.362Z,37.90
2018-07-12T06:04:01.263Z,33.90
2018-07-12T06:05:01.226Z,38.10
2018-07-12T06:06:01.227Z,35.70
2018-07-12T06:07:01.168Z,32.30
2018-07-12T06:08:01.134Z,40.10
2018-07-12T06:09:01.104Z,41.50
2018-07-12T06:10:01.074Z,37.10
2018-07-12T06:11:01.036Z,36.70
2018-07-12T06:12:01.009Z,36.20
2018-07-12T06:13:00.979Z,35.30
2018-07-12T06:14:00.950Z,43.40
2018-07-12T06:15:00.915Z,40.80
2018-07-12T06:16:00.904Z,34.40
2018-07-12T06:17:00.907Z,40.00
2018-07-12T06:18:00.824Z,40.90
2018-07-12T06:19:00.847Z,34.80
2018-07-12T06:20:00.763Z,33.60
2018-07-12T06:21:00.726Z,33.40
2018-07-12T06:22:00.699Z,37.20
2018-07-12T06:23:00.680Z,49.80
2018-07-12T06:24:00.635Z,32.20
2018-07-12T06:25:01.029Z,35.00
2018-07-12T06:26:00.572Z,29.00
2018-07-12T06:27:00.543Z,30.00
2018-07-12T06:28:00.515Z,37.20
2018-07-12T06:29:00.486Z,28.80
2018-07-12T06:30:00.481Z,24.80
2018-07-12T06:31:00.431Z,49.80
2018-07-12T06:32:00.436Z,32.20
2018-07-12T06:33:00.363Z,31.20
2018-07-12T06:34:00.333Z,32.70
2018-07-12T06:35:00.304Z,27.30
2018-07-12T06:36:00.275Z,30.30
2018-07-12T06:37:00.246Z,32.70
2018-07-12T06:38:00.211Z,26.20
2018-07-12T06:39:00.200Z,24.90
2018-07-12T06:40:00.152Z,31.00
2018-07-12T06:41:00.122Z,28.20
2018-07-12T06:42:00.094Z,23.80
2018-07-12T06:43:00.060Z,27.10
2018-07-12T06:44:00.041Z,29.30
2018-07-12T06:45:00.024Z,25.20
2018-07-12T06:46:00.009Z,29.00
2018-07-12T06:47:00.054Z,27.00
2018-07-12T06:47:59.915Z,26.40
2018-07-12T06:48:59.884Z,28.80
2018-07-12T06:49:59.849Z,31.60
2018-07-12T06:50:59.819Z,32.40
2018-07-12T06:51:59.793Z,33.20
2018-07-12T06:52:59.766Z,31.00
2018-07-12T06:53:59.738Z,25.50
2018-07-12T06:54:59.702Z,29.60
2018-07-12T06:55:59.670Z,26.90
2018-07-12T06:56:59.641Z,28.40
2018-07-12T06:57:59.609Z,24.80
2018-07-12T06:58:59.589Z,27.50
2018-07-12T06:59:59.550Z,28.40
2018-07-12T07:01:00.085Z,26.60
2018-07-12T07:01:59.490Z,29.70
2018-07-12T07:02:59.457Z,38.80
2018-07-12T07:03:59.436Z,31.30
2018-07-12T07:04:59.398Z,30.80
2018-07-12T07:05:59.453Z,33.40
2018-07-12T07:06:59.418Z,28.00
2018-07-12T07:07:59.311Z,28.90
2018-07-12T07:08:59.282Z,32.00
2018-07-12T07:09:59.251Z,32.60
2018-07-12T07:10:59.215Z,43.40
2018-07-12T07:11:59.190Z,27.80
2018-07-12T07:12:59.165Z,26.10
2018-07-12T07:13:59.127Z,25.50
2018-07-12T07:14:59.099Z,31.30
2018-07-12T07:15:59.071Z,25.50
2018-07-12T07:16:59.037Z,30.60
2018-07-12T07:17:59.005Z,27.30
2018-07-12T07:18:58.977Z,23.60
2018-07-12T07:19:58.981Z,28.50
2018-07-12T07:20:58.916Z,25.70
2018-07-12T07:21:58.892Z,27.00
2018-07-12T07:22:58.859Z,26.40
2018-07-12T07:23:58.826Z,28.80
2018-07-12T07:24:58.797Z,24.00
2018-07-12T07:25:58.781Z,30.70
2018-07-12T07:26:58.741Z,27.20
2018-07-12T07:27:58.715Z,29.50
2018-07-12T07:28:58.681Z,30.60
2018-07-12T07:29:58.652Z,30.60
2018-07-12T07:30:58.619Z,25.20
2018-07-12T07:31:58.593Z,31.70
2018-07-12T07:32:58.587Z,25.90
2018-07-12T07:33:58.531Z,28.80
2018-07-12T07:34:58.503Z,27.50
2018-07-12T07:35:58.473Z,30.30
2018-07-12T07:36:58.441Z,31.90
2018-07-12T07:37:58.413Z,29.90
2018-07-12T07:38:58.384Z,27.30
2018-07-12T07:39:58.376Z,30.30
2018-07-12T07:40:58.327Z,34.30
2018-07-12T07:41:58.291Z,32.80
2018-07-12T07:42:58.312Z,26.20
2018-07-12T07:43:58.239Z,28.90
2018-07-12T07:44:58.203Z,26.70
2018-07-12T07:45:58.172Z,27.00
2018-07-12T07:46:58.145Z,28.80
2018-07-12T07:47:58.117Z,33.70
2018-07-12T07:48:58.095Z,26.50
2018-07-12T07:49:58.061Z,29.10
2018-07-12T07:50:58.027Z,29.10
2018-07-12T07:51:57.997Z,24.20
2018-07-12T07:52:57.964Z,24.30
2018-07-12T07:53:57.936Z,22.80
2018-07-12T07:54:57.909Z,27.50
2018-07-12T07:55:57.881Z,20.30
2018-07-12T07:56:57.851Z,20.70
2018-07-12T07:57:57.824Z,22.50
2018-07-12T07:58:57.792Z,21.10
2018-07-12T07:59:57.764Z,21.10
2018-07-12T08:00:57.737Z,24.40
2018-07-12T08:01:57.706Z,22.80
2018-07-12T08:02:57.680Z,20.20
2018-07-12T08:03:57.655Z,25.50
2018-07-12T08:04:57.617Z,24.80
2018-07-12T08:05:57.592Z,21.70
2018-07-12T08:06:57.561Z,26.70
2018-07-12T08:07:57.533Z,21.90
2018-07-12T08:08:57.506Z,22.80
2018-07-12T08:09:57.485Z,20.70
2018-07-12T08:10:57.448Z,20.10
2018-07-12T08:11:57.419Z,25.60
2018-07-12T08:12:57.391Z,20.60
2018-07-12T08:13:57.366Z,19.40
2018-07-12T08:14:57.336Z,20.60
2018-07-12T08:15:57.309Z,23.00
2018-07-12T08:16:57.277Z,25.10
2018-07-12T08:17:57.256Z,18.60
2018-07-12T08:18:57.223Z,18.40
2018-07-12T08:19:57.190Z,21.30
2018-07-12T08:20:57.165Z,18.80
2018-07-12T08:21:57.143Z,18.30
2018-07-12T08:22:57.106Z,16.40
2018-07-12T08:23:57.082Z,21.30
2018-07-12T08:24:57.047Z,18.90
2018-07-12T08:25:57.023Z,22.40
2018-07-12T08:26:56.994Z,20.00
2018-07-12T08:27:56.964Z,15.90
2018-07-12T08:28:56.938Z,19.10
2018-07-12T08:29:56.914Z,19.10
2018-07-12T08:30:56.881Z,19.90
2018-07-12T08:31:56.853Z,15.10
2018-07-12T08:32:56.827Z,24.60
2018-07-12T08:33:56.797Z,31.00
2018-07-12T08:34:56.775Z,48.40
2018-07-12T08:35:56.745Z,41.10
2018-07-12T08:36:56.717Z,24.80
2018-07-12T08:37:56.685Z,22.70
2018-07-12T08:38:56.657Z,21.80
2018-07-12T08:39:56.633Z,22.30
2018-07-12T08:40:56.600Z,21.60
2018-07-12T08:41:56.571Z,21.50
2018-07-12T08:42:56.545Z,24.00
2018-07-12T08:43:56.523Z,22.40
2018-07-12T08:44:56.494Z,21.00
2018-07-12T08:45:56.463Z,18.40
2018-07-12T08:46:56.440Z,16.90
2018-07-12T08:47:56.409Z,19.50
2018-07-12T08:48:56.382Z,16.20
2018-07-12T08:49:56.355Z,15.90
2018-07-12T08:50:56.328Z,18.30
2018-07-12T08:51:56.296Z,21.70
2018-07-12T08:52:56.275Z,15.70
2018-07-12T08:53:56.256Z,16.10
2018-07-12T08:54:56.223Z,14.40
2018-07-12T08:55:56.196Z,15.50
2018-07-12T08:56:56.170Z,17.80
2018-07-12T08:57:56.138Z,17.20
2018-07-12T08:58:56.116Z,21.80
2018-07-12T08:59:56.091Z,18.40
2018-07-12T09:00:56.064Z,15.20
2018-07-12T09:01:56.037Z,20.70
2018-07-12T09:02:56.044Z,21.30
2018-07-12T09:03:55.983Z,17.80
2018-07-12T09:04:55.955Z,26.30
2018-07-12T09:05:55.930Z,24.50
2018-07-12T09:06:55.902Z,16.50
2018-07-12T09:07:55.873Z,17.60
2018-07-12T09:08:55.846Z,21.30
2018-07-12T09:09:55.820Z,16.70
2018-07-12T09:10:55.786Z,13.40
2018-07-12T09:11:55.763Z,19.40
2018-07-12T09:12:55.776Z,18.00
2018-07-12T09:13:55.709Z,15.40
2018-07-12T09:14:55.685Z,15.40
2018-07-12T09:15:55.658Z,15.10
2018-07-12T09:16:55.634Z,15.00
2018-07-12T09:17:55.602Z,14.30
2018-07-12T09:18:55.577Z,12.40
2018-07-12T09:19:55.551Z,16.70
2018-07-12T09:20:55.528Z,16.70
2018-07-12T09:21:55.496Z,13.90
2018-07-12T09:22:55.469Z,13.50
2018-07-12T09:23:55.442Z,14.40
2018-07-12T09:24:55.418Z,13.80
2018-07-12T09:25:55.397Z,17.90
2018-07-12T09:26:55.364Z,14.00
2018-07-12T09:27:55.338Z,13.90
2018-07-12T09:28:55.350Z,16.90
2018-07-12T09:29:55.283Z,15.00
2018-07-12T09:30:55.331Z,14.60
2018-07-12T09:31:55.231Z,22.50
2018-07-12T09:32:55.210Z,14.30
2018-07-12T09:33:55.176Z,13.90
2018-07-12T09:34:55.195Z,18.10
2018-07-12T09:35:55.121Z,23.10
2018-07-12T09:36:55.133Z,13.50
2018-07-12T09:37:55.068Z,15.20
2018-07-12T09:38:55.049Z,13.40
2018-07-12T09:39:55.013Z,16.50
2018-07-12T09:40:54.988Z,13.50
2018-07-12T09:41:54.957Z,12.50
2018-07-12T09:42:54.949Z,13.40
2018-07-12T09:43:54.907Z,15.10
2018-07-12T09:44:54.897Z,14.00
2018-07-12T09:45:54.905Z,17.70
2018-07-12T09:46:54.819Z,16.30
2018-07-12T09:47:54.787Z,15.00
2018-07-12T09:48:54.798Z,12.40
2018-07-12T09:49:54.738Z,12.40
2018-07-12T09:50:54.705Z,18.90
2018-07-12T09:51:54.688Z,13.20
2018-07-12T09:52:54.657Z,14.70
2018-07-12T09:53:54.623Z,15.80
2018-07-12T09:54:54.599Z,14.80
2018-07-12T09:55:54.635Z,14.90
2018-07-12T09:56:54.546Z,19.80
2018-07-12T09:57:54.527Z,17.90
2018-07-12T09:58:54.489Z,17.20
2018-07-12T09:59:54.464Z,14.40
2018-07-12T10:00:54.435Z,13.80
2018-07-12T10:01:54.407Z,12.40
2018-07-12T10:02:54.377Z,14.60
2018-07-12T10:03:54.361Z,24.20
2018-07-12T10:04:54.324Z,19.20
2018-07-12T10:05:54.295Z,15.10
2018-07-12T10:06:54.273Z,21.10
2018-07-12T10:07:54.245Z,15.90
2018-07-12T10:08:54.218Z,16.90
2018-07-12T10:09:54.213Z,22.00
2018-07-12T10:10:54.160Z,15.70
2018-07-12T10:11:54.136Z,14.60
2018-07-12T10:12:54.110Z,22.10
2018-07-12T10:13:54.079Z,14.40
2018-07-12T10:14:54.053Z,18.80
2018-07-12T10:15:54.238Z,12.90
2018-07-12T10:16:54.004Z,23.70
2018-07-12T10:17:53.973Z,16.10
2018-07-12T10:18:53.951Z,20.70
2018-07-12T10:19:53.944Z,12.80
2018-07-12T10:20:53.902Z,15.10
2018-07-12T10:21:53.876Z,14.00
2018-07-12T10:22:53.844Z,15.40
2018-07-12T10:23:53.816Z,17.30
2018-07-12T10:24:53.793Z,17.60
2018-07-12T10:25:53.768Z,11.10
2018-07-12T10:26:53.734Z,14.90
2018-07-12T10:27:53.724Z,15.40
2018-07-12T10:28:53.690Z,14.80
2018-07-12T10:29:53.709Z,15.40
2018-07-12T10:30:53.634Z,16.20
2018-07-12T10:31:53.613Z,18.50
2018-07-12T10:32:53.583Z,15.80
2018-07-12T10:33:53.555Z,12.40
2018-07-12T10:34:53.530Z,14.40
2018-07-12T10:35:53.521Z,17.90
2018-07-12T10:36:53.480Z,13.70
2018-07-12T10:37:53.453Z,12.50
2018-07-12T10:38:53.427Z,16.90
2018-07-12T10:39:53.412Z,12.50
2018-07-12T10:40:53.373Z,11.60
2018-07-12T10:41:53.348Z,13.90
2018-07-12T10:42:53.323Z,17.70
2018-07-12T10:43:53.301Z,18.30
2018-07-12T10:44:53.269Z,14.30
2018-07-12T10:45:53.244Z,12.30
2018-07-12T10:46:53.218Z,17.50
2018-07-12T10:47:53.192Z,13.00
2018-07-12T10:48:53.166Z,14.30
2018-07-12T10:49:53.138Z,14.00
2018-07-12T10:50:53.111Z,13.50
2018-07-12T10:51:53.096Z,10.50
2018-07-12T10:52:53.124Z,16.10
2018-07-12T10:53:53.030Z,13.20
2018-07-12T10:54:53.009Z,12.80
2018-07-12T10:55:52.980Z,18.50
2018-07-12T10:56:52.953Z,13.10
2018-07-12T10:57:52.933Z,17.30
2018-07-12T10:58:52.902Z,29.30
2018-07-12T10:59:52.873Z,95.10
2018-07-12T11:00:52.852Z,33.30
2018-07-12T11:01:52.818Z,24.40
2018-07-12T11:02:52.792Z,64.80
2018-07-12T11:03:52.764Z,31.40
2018-07-12T11:04:52.742Z,12.80
2018-07-12T11:05:52.710Z,15.40
2018-07-12T11:06:52.694Z,12.90
2018-07-12T11:07:52.659Z,49.60
2018-07-12T11:08:52.634Z,24.80
2018-07-12T11:09:52.662Z,13.90
2018-07-12T11:10:52.580Z,20.40
2018-07-12T11:11:52.557Z,13.30
2018-07-12T11:12:52.531Z,20.00
2018-07-12T11:13:52.500Z,55.60
2018-07-12T11:14:52.479Z,25.80
2018-07-12T11:15:52.494Z,22.10
2018-07-12T11:16:52.423Z,85.20
2018-07-12T11:17:52.398Z,39.20
2018-07-12T11:18:52.902Z,12.90
2018-07-12T11:19:52.348Z,86.20
2018-07-12T11:20:52.322Z,39.80
2018-07-12T11:21:52.801Z,21.30
2018-07-12T11:22:52.270Z,29.10
2018-07-12T11:23:52.250Z,27.40
2018-07-12T11:24:52.219Z,20.70
2018-07-12T11:25:52.195Z,25.70
2018-07-12T11:26:52.170Z,38.90
2018-07-12T11:27:52.155Z,44.30
2018-07-12T11:28:52.123Z,18.00
2018-07-12T11:29:52.095Z,18.10
2018-07-12T11:30:52.068Z,14.90
2018-07-12T11:31:52.045Z,12.50
2018-07-12T11:32:52.019Z,20.10
2018-07-12T11:33:51.991Z,15.50
2018-07-12T11:34:51.966Z,26.50
2018-07-12T11:35:51.996Z,34.40
2018-07-12T11:36:51.919Z,24.70
2018-07-12T11:37:51.889Z,14.50
2018-07-12T11:38:51.867Z,18.70
2018-07-12T11:39:51.838Z,27.20
2018-07-12T11:40:51.814Z,26.20
2018-07-12T11:41:52.220Z,48.70
2018-07-12T11:42:51.764Z,48.20
2018-07-12T11:43:51.738Z,78.40
2018-07-12T11:44:51.714Z,82.60
2018-07-12T11:45:51.688Z,95.90
2018-07-12T11:46:51.661Z,56.10
2018-07-12T11:47:51.638Z,40.50
2018-07-12T11:48:51.612Z,39.90
2018-07-12T11:49:51.588Z,32.50
2018-07-12T11:50:51.585Z,18.30
2018-07-12T11:51:51.536Z,40.80
2018-07-12T11:52:51.572Z,21.60
2018-07-12T11:53:51.487Z,18.70
2018-07-12T11:54:51.463Z,25.20
2018-07-12T11:55:51.438Z,23.60
2018-07-12T11:56:51.422Z,22.20
2018-07-12T11:57:51.387Z,25.40
2018-07-12T11:58:51.364Z,30.00
2018-07-12T11:59:51.338Z,47.20
2018-07-12T12:00:51.316Z,42.50
2018-07-12T12:01:51.356Z,19.90
2018-07-12T12:02:51.265Z,25.70
2018-07-12T12:03:51.244Z,24.90
2018-07-12T12:04:51.217Z,14.00
2018-07-12T12:05:51.190Z,12.80
2018-07-12T12:06:51.181Z,13.20
2018-07-12T12:07:51.144Z,16.60
2018-07-12T12:08:51.117Z,13.20
2018-07-12T12:09:51.092Z,19.60
2018-07-12T12:10:51.073Z,19.70
2018-07-12T12:11:51.041Z,12.70
2018-07-12T12:12:51.021Z,22.40
2018-07-12T12:13:50.991Z,19.60
2018-07-12T12:14:50.964Z,18.90
2018-07-12T12:15:50.942Z,18.70
2018-07-12T12:16:50.922Z,16.40
2018-07-12T12:17:50.888Z,13.60
2018-07-12T12:18:50.863Z,13.50
2018-07-12T12:19:50.844Z,14.80
2018-07-12T12:20:50.816Z,14.20
2018-07-12T12:21:51.262Z,14.70
2018-07-12T12:22:50.765Z,13.90
2018-07-12T12:23:50.746Z,15.10
2018-07-12T12:24:50.710Z,13.30
2018-07-12T12:25:50.691Z,12.50
2018-07-12T12:26:50.666Z,15.20
2018-07-12T12:27:50.641Z,11.90
2018-07-12T12:28:50.616Z,14.50
2018-07-12T12:29:50.587Z,15.00
2018-07-12T12:30:50.577Z,17.60
2018-07-12T12:31:50.536Z,11.20
2018-07-12T12:32:50.509Z,14.40
2018-07-12T12:33:50.482Z,16.20
2018-07-12T12:34:50.458Z,16.40
2018-07-12T12:35:50.431Z,13.50
2018-07-12T12:36:50.411Z,15.10
2018-07-12T12:37:50.378Z,16.90
2018-07-12T12:38:50.351Z,13.30
2018-07-12T12:39:50.326Z,17.00
2018-07-12T12:40:50.296Z,16.50
2018-07-12T12:41:50.316Z,15.60
2018-07-12T12:42:50.246Z,16.50
2018-07-12T12:43:50.217Z,16.50
2018-07-12T12:44:50.194Z,12.40
2018-07-12T12:45:50.163Z,13.30
2018-07-12T12:46:50.144Z,12.90
2018-07-12T12:47:50.111Z,14.10
2018-07-12T12:48:50.089Z,18.00
2018-07-12T12:49:50.058Z,13.50
2018-07-12T12:50:50.056Z,23.90
2018-07-12T12:51:50.010Z,16.10